sensor_id;sensor_type;location;lat;lon;timestamp;P1;durP1;ratioP1;P2;durP2;ratioP2
4311;SDS011;2169;49.086;9.284;2022-12-18T00:02:12;4.32;;;4.10;;
4311;SDS011;2169;49.086;9.284;2022-12-18T00:04:39;7.07;;;5.57;;
4311;SDS011;2169;49.086;9.284;2022-12-18T00:07:06;12.43;;;6.28;;
4311;SDS011;2169;49.086;9.284;2022-12-18T00:09:33;16.17;;;4.40;;
4311;SDS011;2169;49.086;9.284;2022-12-18T00:12:00;12.35;;;8.05;;
4311;SDS011;2169;49.086;9.284;2022-12-18T00:14:27;5.75;;;5.22;;
4311;SDS011;2169;49.086;9.284;2022-12-18T00:16:54;8.15;;;7.35;;
4311;SDS011;2169;49.086;9.284;2022-12-18T00:19:27;20.50;;;7.15;;
4311;SDS011;2169;49.086;9.284;2022-12-18T00:21:53;4.93;;;4.72;;
4311;SDS011;2169;49.086;9.284;2022-12-18T00:24:20;11.98;;;6.90;;
4311;SDS011;2169;49.086;9.284;2022-12-18T00:26:47;10.25;;;7.57;;
4311;SDS011;2169;49.086;9.284;2022-12-18T00:29:14;8.27;;;7.57;;
4311;SDS011;2169;49.086;9.284;2022-12-18T00:31:41;8.35;;;6.35;;
4311;SDS011;2169;49.086;9.284;2022-12-18T00:34:09;13.27;;;9.48;;
4311;SDS011;2169;49.086;9.284;2022-12-18T00:36:38;10.77;;;6.75;;
4311;SDS011;2169;49.086;9.284;2022-12-18T00:39:06;6.88;;;4.15;;
4311;SDS011;2169;49.086;9.284;2022-12-18T00:41:34;11.73;;;10.05;;
4311;SDS011;2169;49.086;9.284;2022-12-18T00:44:18;10.77;;;6.85;;
4311;SDS011;2169;49.086;9.284;2022-12-18T00:46:46;7.75;;;3.13;;
4311;SDS011;2169;49.086;9.284;2022-12-18T00:49:15;8.80;;;5.13;;
4311;SDS011;2169;49.086;9.284;2022-12-18T00:51:45;4.05;;;3.70;;
4311;SDS011;2169;49.086;9.284;2022-12-18T00:54:12;10.30;;;4.45;;
4311;SDS011;2169;49.086;9.284;2022-12-18T00:56:40;5.45;;;5.15;;
4311;SDS011;2169;49.086;9.284;2022-12-18T00:59:07;6.38;;;5.70;;
4311;SDS011;2169;49.086;9.284;2022-12-18T01:01:33;7.30;;;3.83;;
4311;SDS011;2169;49.086;9.284;2022-12-18T01:04:01;9.63;;;7.20;;
4311;SDS011;2169;49.086;9.284;2022-12-18T01:06:28;3.33;;;2.50;;
4311;SDS011;2169;49.086;9.284;2022-12-18T01:08:57;5.80;;;4.85;;
4311;SDS011;2169;49.086;9.284;2022-12-18T01:11:24;13.68;;;4.80;;
4311;SDS011;2169;49.086;9.284;2022-12-18T01:13:52;23.35;;;3.20;;
4311;SDS011;2169;49.086;9.284;2022-12-18T01:16:20;10.88;;;6.25;;
4311;SDS011;2169;49.086;9.284;2022-12-18T01:18:50;31.27;;;8.20;;
4311;SDS011;2169;49.086;9.284;2022-12-18T01:21:17;4.18;;;3.95;;
4311;SDS011;2169;49.086;9.284;2022-12-18T01:23:45;10.15;;;7.63;;
4311;SDS011;2169;49.086;9.284;2022-12-18T01:26:16;8.20;;;6.32;;
4311;SDS011;2169;49.086;9.284;2022-12-18T01:28:43;15.68;;;5.97;;
4311;SDS011;2169;49.086;9.284;2022-12-18T01:31:11;5.47;;;5.07;;
4311;SDS011;2169;49.086;9.284;2022-12-18T01:33:40;6.78;;;4.90;;
4311;SDS011;2169;49.086;9.284;2022-12-18T01:36:07;10.68;;;4.63;;
4311;SDS011;2169;49.086;9.284;2022-12-18T01:38:34;9.07;;;5.18;;
4311;SDS011;2169;49.086;9.284;2022-12-18T01:41:01;15.38;;;8.60;;
4311;SDS011;2169;49.086;9.284;2022-12-18T01:43:56;7.68;;;3.55;;
4311;SDS011;2169;49.086;9.284;2022-12-18T01:46:24;5.25;;;4.85;;
4311;SDS011;2169;49.086;9.284;2022-12-18T01:48:53;5.00;;;4.05;;
4311;SDS011;2169;49.086;9.284;2022-12-18T01:51:22;3.38;;;2.50;;
4311;SDS011;2169;49.086;9.284;2022-12-18T01:53:51;4.78;;;4.40;;
4311;SDS011;2169;49.086;9.284;2022-12-18T01:56:19;7.03;;;6.32;;
4311;SDS011;2169;49.086;9.284;2022-12-18T02:01:32;5.45;;;4.35;;
4311;SDS011;2169;49.086;9.284;2022-12-18T02:04:13;9.70;;;6.85;;
4311;SDS011;2169;49.086;9.284;2022-12-18T02:06:46;9.18;;;4.63;;
4311;SDS011;2169;49.086;9.284;2022-12-18T02:09:18;5.93;;;5.38;;
4311;SDS011;2169;49.086;9.284;2022-12-18T02:11:49;8.88;;;5.53;;
4311;SDS011;2169;49.086;9.284;2022-12-18T02:14:26;10.13;;;7.53;;
4311;SDS011;2169;49.086;9.284;2022-12-18T02:16:59;3.88;;;3.53;;
4311;SDS011;2169;49.086;9.284;2022-12-18T02:19:37;11.65;;;4.78;;
4311;SDS011;2169;49.086;9.284;2022-12-18T02:22:14;30.42;;;6.85;;
4311;SDS011;2169;49.086;9.284;2022-12-18T02:24:53;4.50;;;4.30;;
4311;SDS011;2169;49.086;9.284;2022-12-18T02:27:29;3.42;;;3.15;;
4311;SDS011;2169;49.086;9.284;2022-12-18T02:29:58;5.15;;;4.75;;
4311;SDS011;2169;49.086;9.284;2022-12-18T02:32:28;4.55;;;4.40;;
4311;SDS011;2169;49.086;9.284;2022-12-18T02:34:58;6.10;;;5.28;;
4311;SDS011;2169;49.086;9.284;2022-12-18T02:37:28;6.50;;;5.68;;
4311;SDS011;2169;49.086;9.284;2022-12-18T02:39:56;12.27;;;8.80;;
4311;SDS011;2169;49.086;9.284;2022-12-18T02:42:26;9.02;;;5.40;;
4311;SDS011;2169;49.086;9.284;2022-12-18T02:44:55;4.88;;;4.47;;
4311;SDS011;2169;49.086;9.284;2022-12-18T02:47:24;17.02;;;7.22;;
4311;SDS011;2169;49.086;9.284;2022-12-18T02:49:57;11.35;;;5.47;;
4311;SDS011;2169;49.086;9.284;2022-12-18T02:52:34;3.90;;;3.60;;
4311;SDS011;2169;49.086;9.284;2022-12-18T02:55:15;3.90;;;3.70;;
4311;SDS011;2169;49.086;9.284;2022-12-18T02:57:52;5.80;;;5.22;;
4311;SDS011;2169;49.086;9.284;2022-12-18T03:00:26;4.28;;;4.07;;
4311;SDS011;2169;49.086;9.284;2022-12-18T03:02:59;9.02;;;4.85;;
4311;SDS011;2169;49.086;9.284;2022-12-18T03:05:33;5.78;;;5.35;;
4311;SDS011;2169;49.086;9.284;2022-12-18T03:08:06;7.45;;;5.45;;
4311;SDS011;2169;49.086;9.284;2022-12-18T03:10:38;4.95;;;4.53;;
4311;SDS011;2169;49.086;9.284;2022-12-18T03:13:12;6.55;;;5.47;;
4311;SDS011;2169;49.086;9.284;2022-12-18T03:15:44;16.45;;;5.40;;
4311;SDS011;2169;49.086;9.284;2022-12-18T03:18:14;14.30;;;6.65;;
4311;SDS011;2169;49.086;9.284;2022-12-18T03:20:43;4.78;;;4.43;;
4311;SDS011;2169;49.086;9.284;2022-12-18T03:23:14;6.68;;;4.95;;
4311;SDS011;2169;49.086;9.284;2022-12-18T03:25:44;2.28;;;2.17;;
4311;SDS011;2169;49.086;9.284;2022-12-18T03:28:14;4.53;;;3.72;;
4311;SDS011;2169;49.086;9.284;2022-12-18T03:30:44;11.23;;;5.65;;
4311;SDS011;2169;49.086;9.284;2022-12-18T03:33:15;8.80;;;3.95;;
4311;SDS011;2169;49.086;9.284;2022-12-18T03:35:45;7.28;;;6.70;;
4311;SDS011;2169;49.086;9.284;2022-12-18T03:38:13;9.13;;;5.50;;
4311;SDS011;2169;49.086;9.284;2022-12-18T03:40:45;3.00;;;2.65;;
4311;SDS011;2169;49.086;9.284;2022-12-18T03:43:25;21.00;;;4.75;;
4311;SDS011;2169;49.086;9.284;2022-12-18T03:46:02;8.60;;;4.93;;
4311;SDS011;2169;49.086;9.284;2022-12-18T03:48:36;19.08;;;6.47;;
4311;SDS011;2169;49.086;9.284;2022-12-18T03:51:08;6.78;;;6.15;;
4311;SDS011;2169;49.086;9.284;2022-12-18T03:53:41;6.75;;;6.30;;
4311;SDS011;2169;49.086;9.284;2022-12-18T03:56:14;3.53;;;2.38;;
4311;SDS011;2169;49.086;9.284;2022-12-18T03:58:44;34.58;;;4.97;;
4311;SDS011;2169;49.086;9.284;2022-12-18T04:01:14;7.47;;;3.85;;
4311;SDS011;2169;49.086;9.284;2022-12-18T04:03:43;6.47;;;4.95;;
4311;SDS011;2169;49.086;9.284;2022-12-18T04:06:14;8.05;;;7.38;;
4311;SDS011;2169;49.086;9.284;2022-12-18T04:08:43;4.15;;;3.70;;
4311;SDS011;2169;49.086;9.284;2022-12-18T04:11:12;18.45;;;5.88;;
4311;SDS011;2169;49.086;9.284;2022-12-18T04:13:40;6.53;;;3.97;;
4311;SDS011;2169;49.086;9.284;2022-12-18T04:16:10;5.28;;;5.07;;
4311;SDS011;2169;49.086;9.284;2022-12-18T04:18:38;5.20;;;4.90;;
4311;SDS011;2169;49.086;9.284;2022-12-18T04:21:05;6.38;;;5.82;;
4311;SDS011;2169;49.086;9.284;2022-12-18T04:23:32;16.02;;;8.05;;
4311;SDS011;2169;49.086;9.284;2022-12-18T04:25:59;6.15;;;5.00;;
4311;SDS011;2169;49.086;9.284;2022-12-18T04:28:27;13.95;;;2.72;;
4311;SDS011;2169;49.086;9.284;2022-12-18T04:30:56;3.92;;;3.67;;
4311;SDS011;2169;49.086;9.284;2022-12-18T04:33:23;2.78;;;2.67;;
4311;SDS011;2169;49.086;9.284;2022-12-18T04:35:50;3.60;;;3.40;;
4311;SDS011;2169;49.086;9.284;2022-12-18T04:38:17;3.40;;;2.72;;
4311;SDS011;2169;49.086;9.284;2022-12-18T04:40:44;3.70;;;3.35;;
4311;SDS011;2169;49.086;9.284;2022-12-18T04:43:11;10.23;;;4.70;;
4311;SDS011;2169;49.086;9.284;2022-12-18T04:45:37;5.32;;;4.80;;
4311;SDS011;2169;49.086;9.284;2022-12-18T04:48:06;6.15;;;5.50;;
4311;SDS011;2169;49.086;9.284;2022-12-18T04:50:33;6.28;;;4.28;;
4311;SDS011;2169;49.086;9.284;2022-12-18T04:53:02;3.00;;;1.60;;
4311;SDS011;2169;49.086;9.284;2022-12-18T04:55:29;8.75;;;3.40;;
4311;SDS011;2169;49.086;9.284;2022-12-18T04:57:57;6.80;;;6.28;;
4311;SDS011;2169;49.086;9.284;2022-12-18T05:00:24;8.60;;;5.82;;
4311;SDS011;2169;49.086;9.284;2022-12-18T05:02:51;13.40;;;5.80;;
4311;SDS011;2169;49.086;9.284;2022-12-18T05:05:19;18.10;;;5.30;;
4311;SDS011;2169;49.086;9.284;2022-12-18T05:07:46;6.82;;;4.55;;
4311;SDS011;2169;49.086;9.284;2022-12-18T05:10:13;3.92;;;3.63;;
4311;SDS011;2169;49.086;9.284;2022-12-18T05:12:40;5.95;;;4.55;;
4311;SDS011;2169;49.086;9.284;2022-12-18T05:15:20;5.13;;;4.70;;
4311;SDS011;2169;49.086;9.284;2022-12-18T05:17:49;7.28;;;4.93;;
4311;SDS011;2169;49.086;9.284;2022-12-18T05:20:15;6.65;;;6.05;;
4311;SDS011;2169;49.086;9.284;2022-12-18T05:22:45;3.13;;;2.60;;
4311;SDS011;2169;49.086;9.284;2022-12-18T05:25:12;5.25;;;4.88;;
4311;SDS011;2169;49.086;9.284;2022-12-18T05:27:39;8.13;;;3.03;;
4311;SDS011;2169;49.086;9.284;2022-12-18T05:30:06;10.43;;;8.27;;
4311;SDS011;2169;49.086;9.284;2022-12-18T05:32:34;7.75;;;3.95;;
4311;SDS011;2169;49.086;9.284;2022-12-18T05:35:01;8.15;;;7.43;;
4311;SDS011;2169;49.086;9.284;2022-12-18T05:37:28;7.57;;;6.90;;
4311;SDS011;2169;49.086;9.284;2022-12-18T05:39:57;8.63;;;2.63;;
4311;SDS011;2169;49.086;9.284;2022-12-18T05:42:24;9.23;;;6.40;;
4311;SDS011;2169;49.086;9.284;2022-12-18T05:44:51;9.75;;;2.55;;
4311;SDS011;2169;49.086;9.284;2022-12-18T05:47:18;3.83;;;3.63;;
4311;SDS011;2169;49.086;9.284;2022-12-18T05:49:45;5.13;;;3.63;;
4311;SDS011;2169;49.086;9.284;2022-12-18T05:52:11;5.38;;;4.78;;
4311;SDS011;2169;49.086;9.284;2022-12-18T05:54:38;6.57;;;5.82;;
4311;SDS011;2169;49.086;9.284;2022-12-18T05:57:06;5.00;;;4.70;;
4311;SDS011;2169;49.086;9.284;2022-12-18T05:59:33;5.15;;;4.85;;
4311;SDS011;2169;49.086;9.284;2022-12-18T06:02:00;2.75;;;2.45;;
4311;SDS011;2169;49.086;9.284;2022-12-18T06:04:27;5.20;;;2.35;;
4311;SDS011;2169;49.086;9.284;2022-12-18T06:06:54;13.15;;;7.43;;
4311;SDS011;2169;49.086;9.284;2022-12-18T06:09:21;11.65;;;5.30;;
4311;SDS011;2169;49.086;9.284;2022-12-18T06:11:48;2.65;;;2.53;;
4311;SDS011;2169;49.086;9.284;2022-12-18T06:14:19;9.15;;;3.88;;
4311;SDS011;2169;49.086;9.284;2022-12-18T06:16:49;4.47;;;3.50;;
4311;SDS011;2169;49.086;9.284;2022-12-18T06:19:17;7.45;;;4.43;;
4311;SDS011;2169;49.086;9.284;2022-12-18T06:21:45;12.27;;;2.42;;
4311;SDS011;2169;49.086;9.284;2022-12-18T06:24:14;3.67;;;3.45;;
4311;SDS011;2169;49.086;9.284;2022-12-18T06:26:42;6.00;;;5.60;;
4311;SDS011;2169;49.086;9.284;2022-12-18T06:29:09;11.48;;;4.38;;
4311;SDS011;2169;49.086;9.284;2022-12-18T06:31:37;9.30;;;3.45;;
4311;SDS011;2169;49.086;9.284;2022-12-18T06:34:04;4.70;;;4.43;;
4311;SDS011;2169;49.086;9.284;2022-12-18T06:36:31;8.55;;;3.85;;
4311;SDS011;2169;49.086;9.284;2022-12-18T06:38:58;4.90;;;3.13;;
4311;SDS011;2169;49.086;9.284;2022-12-18T06:41:25;12.35;;;4.45;;
4311;SDS011;2169;49.086;9.284;2022-12-18T06:43:53;2.92;;;2.72;;
4311;SDS011;2169;49.086;9.284;2022-12-18T06:46:19;5.93;;;5.47;;
4311;SDS011;2169;49.086;9.284;2022-12-18T06:48:49;2.35;;;1.42;;
4311;SDS011;2169;49.086;9.284;2022-12-18T06:51:17;8.57;;;2.60;;
4311;SDS011;2169;49.086;9.284;2022-12-18T06:53:45;10.95;;;3.88;;
4311;SDS011;2169;49.086;9.284;2022-12-18T06:56:12;4.78;;;3.50;;
4311;SDS011;2169;49.086;9.284;2022-12-18T06:58:39;5.97;;;2.50;;
4311;SDS011;2169;49.086;9.284;2022-12-18T07:01:08;1.80;;;1.80;;
4311;SDS011;2169;49.086;9.284;2022-12-18T07:03:36;2.40;;;1.10;;
4311;SDS011;2169;49.086;9.284;2022-12-18T07:06:05;1.98;;;1.52;;
4311;SDS011;2169;49.086;9.284;2022-12-18T07:08:34;4.53;;;3.55;;
4311;SDS011;2169;49.086;9.284;2022-12-18T07:11:02;4.35;;;4.03;;
4311;SDS011;2169;49.086;9.284;2022-12-18T07:13:30;3.65;;;3.35;;
4311;SDS011;2169;49.086;9.284;2022-12-18T07:16:06;5.50;;;3.17;;
4311;SDS011;2169;49.086;9.284;2022-12-18T07:18:33;5.80;;;3.42;;
4311;SDS011;2169;49.086;9.284;2022-12-18T07:21:02;6.40;;;4.32;;
4311;SDS011;2169;49.086;9.284;2022-12-18T07:23:32;5.28;;;4.88;;
4311;SDS011;2169;49.086;9.284;2022-12-18T07:26:03;6.30;;;5.80;;
4311;SDS011;2169;49.086;9.284;2022-12-18T07:28:30;2.55;;;2.35;;
4311;SDS011;2169;49.086;9.284;2022-12-18T07:30:58;3.67;;;3.58;;
4311;SDS011;2169;49.086;9.284;2022-12-18T07:33:25;7.85;;;3.33;;
4311;SDS011;2169;49.086;9.284;2022-12-18T07:35:51;11.35;;;3.58;;
4311;SDS011;2169;49.086;9.284;2022-12-18T07:38:20;3.80;;;3.42;;
4311;SDS011;2169;49.086;9.284;2022-12-18T07:40:47;3.90;;;3.75;;
4311;SDS011;2169;49.086;9.284;2022-12-18T07:43:13;5.25;;;4.68;;
4311;SDS011;2169;49.086;9.284;2022-12-18T07:45:41;2.65;;;2.55;;
4311;SDS011;2169;49.086;9.284;2022-12-18T07:48:09;37.95;;;3.30;;
4311;SDS011;2169;49.086;9.284;2022-12-18T07:50:36;5.07;;;2.00;;
4311;SDS011;2169;49.086;9.284;2022-12-18T07:53:03;5.20;;;4.80;;
4311;SDS011;2169;49.086;9.284;2022-12-18T07:55:32;2.60;;;2.22;;
4311;SDS011;2169;49.086;9.284;2022-12-18T07:58:00;2.17;;;2.05;;
4311;SDS011;2169;49.086;9.284;2022-12-18T08:00:28;4.57;;;2.42;;
4311;SDS011;2169;49.086;9.284;2022-12-18T08:02:54;2.85;;;2.50;;
4311;SDS011;2169;49.086;9.284;2022-12-18T08:05:21;3.15;;;2.95;;
4311;SDS011;2169;49.086;9.284;2022-12-18T08:07:48;1.63;;;1.52;;
4311;SDS011;2169;49.086;9.284;2022-12-18T08:10:15;12.77;;;3.97;;
4311;SDS011;2169;49.086;9.284;2022-12-18T08:12:44;7.07;;;1.98;;
4311;SDS011;2169;49.086;9.284;2022-12-18T08:15:11;2.00;;;1.85;;
4311;SDS011;2169;49.086;9.284;2022-12-18T08:17:38;1.45;;;1.45;;
4311;SDS011;2169;49.086;9.284;2022-12-18T08:20:05;1.98;;;1.73;;
4311;SDS011;2169;49.086;9.284;2022-12-18T08:22:33;3.67;;;3.15;;
4311;SDS011;2169;49.086;9.284;2022-12-18T08:25:00;4.35;;;3.30;;
4311;SDS011;2169;49.086;9.284;2022-12-18T08:27:27;5.70;;;3.60;;
4311;SDS011;2169;49.086;9.284;2022-12-18T08:29:56;7.50;;;3.20;;
4311;SDS011;2169;49.086;9.284;2022-12-18T08:32:23;9.63;;;3.65;;
4311;SDS011;2169;49.086;9.284;2022-12-18T08:34:50;9.57;;;5.30;;
4311;SDS011;2169;49.086;9.284;2022-12-18T08:37:17;2.30;;;2.20;;
4311;SDS011;2169;49.086;9.284;2022-12-18T08:39:44;10.70;;;6.85;;
4311;SDS011;2169;49.086;9.284;2022-12-18T08:42:12;7.65;;;5.03;;
4311;SDS011;2169;49.086;9.284;2022-12-18T08:44:58;4.68;;;3.42;;
4311;SDS011;2169;49.086;9.284;2022-12-18T08:47:24;8.02;;;7.32;;
4311;SDS011;2169;49.086;9.284;2022-12-18T08:49:51;7.15;;;5.10;;
4311;SDS011;2169;49.086;9.284;2022-12-18T08:52:18;11.77;;;4.60;;
4311;SDS011;2169;49.086;9.284;2022-12-18T08:54:45;1.70;;;1.70;;
4311;SDS011;2169;49.086;9.284;2022-12-18T08:57:12;1.98;;;1.92;;
4311;SDS011;2169;49.086;9.284;2022-12-18T08:59:39;4.05;;;3.78;;
4311;SDS011;2169;49.086;9.284;2022-12-18T09:02:08;3.25;;;3.03;;
4311;SDS011;2169;49.086;9.284;2022-12-18T09:04:36;6.78;;;3.75;;
4311;SDS011;2169;49.086;9.284;2022-12-18T09:07:04;4.47;;;1.77;;
4311;SDS011;2169;49.086;9.284;2022-12-18T09:09:34;2.05;;;1.95;;
4311;SDS011;2169;49.086;9.284;2022-12-18T09:12:01;2.28;;;2.28;;
4311;SDS011;2169;49.086;9.284;2022-12-18T09:14:28;4.10;;;2.88;;
4311;SDS011;2169;49.086;9.284;2022-12-18T09:16:55;4.45;;;2.65;;
4311;SDS011;2169;49.086;9.284;2022-12-18T09:19:23;5.90;;;2.03;;
4311;SDS011;2169;49.086;9.284;2022-12-18T09:21:50;4.68;;;4.28;;
4311;SDS011;2169;49.086;9.284;2022-12-18T09:24:17;3.28;;;3.17;;
4311;SDS011;2169;49.086;9.284;2022-12-18T09:26:44;3.05;;;2.30;;
4311;SDS011;2169;49.086;9.284;2022-12-18T09:29:11;5.78;;;4.10;;
4311;SDS011;2169;49.086;9.284;2022-12-18T09:31:38;2.42;;;2.33;;
4311;SDS011;2169;49.086;9.284;2022-12-18T09:34:05;5.05;;;4.65;;
4311;SDS011;2169;49.086;9.284;2022-12-18T09:36:33;4.20;;;3.72;;
4311;SDS011;2169;49.086;9.284;2022-12-18T09:39:00;3.78;;;3.35;;
4311;SDS011;2169;49.086;9.284;2022-12-18T09:41:33;5.70;;;4.88;;
4311;SDS011;2169;49.086;9.284;2022-12-18T09:44:10;19.05;;;2.28;;
4311;SDS011;2169;49.086;9.284;2022-12-18T09:46:46;2.63;;;2.53;;
4311;SDS011;2169;49.086;9.284;2022-12-18T09:49:17;9.60;;;2.92;;
4311;SDS011;2169;49.086;9.284;2022-12-18T09:51:50;5.65;;;4.10;;
4311;SDS011;2169;49.086;9.284;2022-12-18T09:54:21;11.82;;;5.53;;
4311;SDS011;2169;49.086;9.284;2022-12-18T09:56:52;7.28;;;4.18;;
4311;SDS011;2169;49.086;9.284;2022-12-18T09:59:21;9.23;;;3.80;;
4311;SDS011;2169;49.086;9.284;2022-12-18T10:01:51;2.90;;;2.65;;
4311;SDS011;2169;49.086;9.284;2022-12-18T10:04:18;13.10;;;5.78;;
4311;SDS011;2169;49.086;9.284;2022-12-18T10:06:46;14.63;;;7.50;;
4311;SDS011;2169;49.086;9.284;2022-12-18T10:09:24;8.93;;;5.68;;
4311;SDS011;2169;49.086;9.284;2022-12-18T10:12:00;10.02;;;3.45;;
4311;SDS011;2169;49.086;9.284;2022-12-18T10:14:34;7.80;;;6.82;;
4311;SDS011;2169;49.086;9.284;2022-12-18T10:17:10;12.07;;;5.70;;
4311;SDS011;2169;49.086;9.284;2022-12-18T10:19:47;10.52;;;4.85;;
4311;SDS011;2169;49.086;9.284;2022-12-18T10:22:25;8.10;;;7.05;;
4311;SDS011;2169;49.086;9.284;2022-12-18T10:25:03;5.53;;;5.05;;
4311;SDS011;2169;49.086;9.284;2022-12-18T10:27:35;18.60;;;6.35;;
4311;SDS011;2169;49.086;9.284;2022-12-18T10:30:04;14.02;;;8.05;;
4311;SDS011;2169;49.086;9.284;2022-12-18T10:32:39;17.15;;;10.35;;
4311;SDS011;2169;49.086;9.284;2022-12-18T10:35:07;4.20;;;3.60;;
4311;SDS011;2169;49.086;9.284;2022-12-18T10:37:58;9.00;;;5.38;;
4311;SDS011;2169;49.086;9.284;2022-12-18T10:40:26;14.88;;;8.70;;
4311;SDS011;2169;49.086;9.284;2022-12-18T10:43:03;8.18;;;7.18;;
4311;SDS011;2169;49.086;9.284;2022-12-18T10:45:31;14.88;;;5.93;;
4311;SDS011;2169;49.086;9.284;2022-12-18T10:47:57;9.80;;;7.30;;
4311;SDS011;2169;49.086;9.284;2022-12-18T10:50:26;39.88;;;6.90;;
4311;SDS011;2169;49.086;9.284;2022-12-18T10:52:58;17.20;;;7.18;;
4311;SDS011;2169;49.086;9.284;2022-12-18T10:55:27;17.83;;;7.43;;
4311;SDS011;2169;49.086;9.284;2022-12-18T10:58:13;11.35;;;8.32;;
4311;SDS011;2169;49.086;9.284;2022-12-18T11:00:51;16.80;;;9.80;;
4311;SDS011;2169;49.086;9.284;2022-12-18T11:03:30;13.98;;;9.55;;
4311;SDS011;2169;49.086;9.284;2022-12-18T11:06:05;13.73;;;8.90;;
4311;SDS011;2169;49.086;9.284;2022-12-18T11:08:35;17.63;;;7.65;;
4311;SDS011;2169;49.086;9.284;2022-12-18T11:11:02;13.82;;;9.00;;
4311;SDS011;2169;49.086;9.284;2022-12-18T11:13:33;12.70;;;6.68;;
4311;SDS011;2169;49.086;9.284;2022-12-18T11:16:00;18.02;;;6.35;;
4311;SDS011;2169;49.086;9.284;2022-12-18T11:18:28;11.07;;;9.30;;
4311;SDS011;2169;49.086;9.284;2022-12-18T11:20:57;20.50;;;7.70;;
4311;SDS011;2169;49.086;9.284;2022-12-18T11:23:26;14.50;;;8.93;;
4311;SDS011;2169;49.086;9.284;2022-12-18T11:25:56;12.07;;;8.15;;
4311;SDS011;2169;49.086;9.284;2022-12-18T11:28:25;9.50;;;4.55;;
4311;SDS011;2169;49.086;9.284;2022-12-18T11:31:17;17.83;;;7.13;;
4311;SDS011;2169;49.086;9.284;2022-12-18T11:33:48;9.18;;;5.18;;
4311;SDS011;2169;49.086;9.284;2022-12-18T11:36:28;14.27;;;8.70;;
4311;SDS011;2169;49.086;9.284;2022-12-18T11:38:59;21.52;;;7.82;;
4311;SDS011;2169;49.086;9.284;2022-12-18T11:41:34;12.43;;;6.47;;
4311;SDS011;2169;49.086;9.284;2022-12-18T11:44:24;12.88;;;5.95;;
4311;SDS011;2169;49.086;9.284;2022-12-18T11:46:55;15.15;;;8.70;;
4311;SDS011;2169;49.086;9.284;2022-12-18T11:49:28;9.38;;;7.93;;
4311;SDS011;2169;49.086;9.284;2022-12-18T11:52:01;18.88;;;7.95;;
4311;SDS011;2169;49.086;9.284;2022-12-18T11:54:35;13.30;;;9.20;;
4311;SDS011;2169;49.086;9.284;2022-12-18T11:57:05;11.90;;;5.57;;
4311;SDS011;2169;49.086;9.284;2022-12-18T11:59:42;7.35;;;6.00;;
4311;SDS011;2169;49.086;9.284;2022-12-18T12:02:19;19.88;;;8.68;;
4311;SDS011;2169;49.086;9.284;2022-12-18T12:05:05;25.70;;;9.23;;
4311;SDS011;2169;49.086;9.284;2022-12-18T12:07:55;12.77;;;7.20;;
4311;SDS011;2169;49.086;9.284;2022-12-18T12:10:32;18.02;;;7.28;;
4311;SDS011;2169;49.086;9.284;2022-12-18T12:13:17;11.52;;;7.38;;
4311;SDS011;2169;49.086;9.284;2022-12-18T12:16:01;16.92;;;9.07;;
4311;SDS011;2169;49.086;9.284;2022-12-18T12:18:41;12.30;;;8.23;;
4311;SDS011;2169;49.086;9.284;2022-12-18T12:21:17;30.45;;;11.85;;
4311;SDS011;2169;49.086;9.284;2022-12-18T12:23:51;15.90;;;10.55;;
4311;SDS011;2169;49.086;9.284;2022-12-18T12:26:27;27.13;;;9.63;;
4311;SDS011;2169;49.086;9.284;2022-12-18T12:29:04;13.30;;;7.75;;
4311;SDS011;2169;49.086;9.284;2022-12-18T12:31:46;9.55;;;7.00;;
4311;SDS011;2169;49.086;9.284;2022-12-18T12:34:22;16.92;;;7.07;;
4311;SDS011;2169;49.086;9.284;2022-12-18T12:37:00;15.82;;;9.15;;
4311;SDS011;2169;49.086;9.284;2022-12-18T12:39:42;7.38;;;6.43;;
4311;SDS011;2169;49.086;9.284;2022-12-18T12:42:12;17.67;;;8.57;;
4311;SDS011;2169;49.086;9.284;2022-12-18T12:45:15;28.02;;;8.25;;
4311;SDS011;2169;49.086;9.284;2022-12-18T12:47:46;25.48;;;9.13;;
4311;SDS011;2169;49.086;9.284;2022-12-18T12:50:17;9.60;;;7.70;;
4311;SDS011;2169;49.086;9.284;2022-12-18T12:52:49;19.27;;;9.75;;
4311;SDS011;2169;49.086;9.284;2022-12-18T12:55:19;14.48;;;9.02;;
4311;SDS011;2169;49.086;9.284;2022-12-18T12:57:50;20.98;;;9.63;;
4311;SDS011;2169;49.086;9.284;2022-12-18T13:00:23;27.40;;;11.45;;
4311;SDS011;2169;49.086;9.284;2022-12-18T13:02:56;13.00;;;9.52;;
4311;SDS011;2169;49.086;9.284;2022-12-18T13:05:30;13.55;;;8.82;;
4311;SDS011;2169;49.086;9.284;2022-12-18T13:08:05;13.68;;;7.95;;
4311;SDS011;2169;49.086;9.284;2022-12-18T13:10:35;17.98;;;8.18;;
4311;SDS011;2169;49.086;9.284;2022-12-18T13:13:04;28.05;;;9.50;;
4311;SDS011;2169;49.086;9.284;2022-12-18T13:15:33;22.48;;;10.93;;
4311;SDS011;2169;49.086;9.284;2022-12-18T13:18:13;19.65;;;10.63;;
4311;SDS011;2169;49.086;9.284;2022-12-18T13:20:43;25.63;;;14.00;;
4311;SDS011;2169;49.086;9.284;2022-12-18T13:23:28;31.48;;;10.63;;
4311;SDS011;2169;49.086;9.284;2022-12-18T13:26:00;38.38;;;11.65;;
4311;SDS011;2169;49.086;9.284;2022-12-18T13:28:58;19.98;;;7.35;;
4311;SDS011;2169;49.086;9.284;2022-12-18T13:34:35;14.70;;;7.57;;
4311;SDS011;2169;49.086;9.284;2022-12-18T13:43:20;17.77;;;9.38;;
4311;SDS011;2169;49.086;9.284;2022-12-18T13:46:00;24.13;;;11.30;;
4311;SDS011;2169;49.086;9.284;2022-12-18T13:48:31;28.30;;;12.82;;
4311;SDS011;2169;49.086;9.284;2022-12-18T13:51:02;20.17;;;10.63;;
4311;SDS011;2169;49.086;9.284;2022-12-18T13:53:33;15.57;;;7.65;;
4311;SDS011;2169;49.086;9.284;2022-12-18T13:56:04;21.45;;;10.18;;
4311;SDS011;2169;49.086;9.284;2022-12-18T13:58:32;17.08;;;9.88;;
4311;SDS011;2169;49.086;9.284;2022-12-18T14:00:59;32.08;;;12.13;;
4311;SDS011;2169;49.086;9.284;2022-12-18T14:03:28;14.95;;;9.32;;
4311;SDS011;2169;49.086;9.284;2022-12-18T14:05:58;20.30;;;8.73;;
4311;SDS011;2169;49.086;9.284;2022-12-18T14:08:37;24.65;;;11.32;;
4311;SDS011;2169;49.086;9.284;2022-12-18T14:11:05;17.80;;;9.43;;
4311;SDS011;2169;49.086;9.284;2022-12-18T14:13:34;12.27;;;9.18;;
4311;SDS011;2169;49.086;9.284;2022-12-18T14:16:03;17.58;;;9.43;;
4311;SDS011;2169;49.086;9.284;2022-12-18T14:18:35;19.83;;;9.50;;
4311;SDS011;2169;49.086;9.284;2022-12-18T14:21:15;17.67;;;9.85;;
4311;SDS011;2169;49.086;9.284;2022-12-18T14:23:48;23.02;;;9.70;;
4311;SDS011;2169;49.086;9.284;2022-12-18T14:26:22;27.85;;;12.13;;
4311;SDS011;2169;49.086;9.284;2022-12-18T14:28:53;15.02;;;8.05;;
4311;SDS011;2169;49.086;9.284;2022-12-18T14:31:21;24.15;;;10.10;;
4311;SDS011;2169;49.086;9.284;2022-12-18T14:33:50;17.60;;;9.45;;
4311;SDS011;2169;49.086;9.284;2022-12-18T14:36:18;20.13;;;8.27;;
4311;SDS011;2169;49.086;9.284;2022-12-18T14:38:51;20.02;;;12.50;;
4311;SDS011;2169;49.086;9.284;2022-12-18T14:41:20;16.35;;;9.82;;
4311;SDS011;2169;49.086;9.284;2022-12-18T14:43:48;13.05;;;8.20;;
4311;SDS011;2169;49.086;9.284;2022-12-18T14:46:27;15.02;;;9.15;;
4311;SDS011;2169;49.086;9.284;2022-12-18T14:48:57;19.20;;;10.98;;
4311;SDS011;2169;49.086;9.284;2022-12-18T14:51:26;17.98;;;9.40;;
4311;SDS011;2169;49.086;9.284;2022-12-18T14:53:56;18.15;;;8.90;;
4311;SDS011;2169;49.086;9.284;2022-12-18T14:56:26;18.35;;;9.98;;
4311;SDS011;2169;49.086;9.284;2022-12-18T14:58:55;28.85;;;12.80;;
4311;SDS011;2169;49.086;9.284;2022-12-18T15:01:25;19.20;;;11.63;;
4311;SDS011;2169;49.086;9.284;2022-12-18T15:03:54;20.55;;;9.75;;
4311;SDS011;2169;49.086;9.284;2022-12-18T15:06:27;23.63;;;9.30;;
4311;SDS011;2169;49.086;9.284;2022-12-18T15:09:00;30.90;;;13.40;;
4311;SDS011;2169;49.086;9.284;2022-12-18T15:11:32;19.27;;;11.00;;
4311;SDS011;2169;49.086;9.284;2022-12-18T15:16:56;16.75;;;9.73;;
4311;SDS011;2169;49.086;9.284;2022-12-18T15:19:26;24.95;;;11.77;;
4311;SDS011;2169;49.086;9.284;2022-12-18T15:22:01;25.35;;;9.88;;
4311;SDS011;2169;49.086;9.284;2022-12-18T15:24:31;16.30;;;11.40;;
4311;SDS011;2169;49.086;9.284;2022-12-18T15:26:59;21.40;;;9.23;;
4311;SDS011;2169;49.086;9.284;2022-12-18T15:29:26;11.77;;;8.20;;
4311;SDS011;2169;49.086;9.284;2022-12-18T15:32:00;13.30;;;8.18;;
4311;SDS011;2169;49.086;9.284;2022-12-18T15:34:31;14.68;;;8.07;;
4311;SDS011;2169;49.086;9.284;2022-12-18T15:37:00;19.05;;;10.48;;
4311;SDS011;2169;49.086;9.284;2022-12-18T15:39:27;21.13;;;9.43;;
4311;SDS011;2169;49.086;9.284;2022-12-18T15:41:55;19.08;;;8.20;;
4311;SDS011;2169;49.086;9.284;2022-12-18T15:44:40;24.05;;;11.75;;